createdAt,value
2023-03-02T00:01:39.843Z,4.25
2023-03-02T00:04:09.767Z,6.22
2023-03-02T00:06:37.378Z,6.43
2023-03-02T00:09:06.161Z,4.72
2023-03-02T00:11:35.553Z,3.67
2023-03-02T00:14:02.496Z,3.08
2023-03-02T00:16:29.250Z,6.38
2023-03-02T00:18:55.984Z,5.95
2023-03-02T00:21:24.544Z,4.10
2023-03-02T00:23:52.413Z,5.18
2023-03-02T00:26:19.410Z,5.25
2023-03-02T00:28:46.708Z,5.10
2023-03-02T00:31:13.407Z,5.05
2023-03-02T00:33:40.032Z,4.72
2023-03-02T00:36:07.024Z,7.10
2023-03-02T00:38:33.721Z,7.55
2023-03-02T00:41:00.440Z,5.18
2023-03-02T00:43:28.121Z,4.13
2023-03-02T00:45:55.522Z,4.68
2023-03-02T00:48:22.635Z,5.18
2023-03-02T00:50:49.280Z,5.20
2023-03-02T00:53:15.918Z,5.15
2023-03-02T00:55:42.694Z,9.15
2023-03-02T00:58:09.516Z,4.05
2023-03-02T01:00:37.448Z,5.05
2023-03-02T01:03:06.555Z,7.03
2023-03-02T01:05:37.247Z,4.30
2023-03-02T01:08:04.146Z,5.25
2023-03-02T01:10:34.617Z,5.75
2023-03-02T01:13:02.234Z,4.10
2023-03-02T01:15:28.881Z,9.68
2023-03-02T01:17:55.519Z,3.97
2023-03-02T01:20:22.182Z,4.03
2023-03-02T01:22:48.781Z,3.97
2023-03-02T01:25:15.463Z,8.02
2023-03-02T01:27:42.175Z,5.07
2023-03-02T01:30:09.647Z,8.88
2023-03-02T01:32:36.271Z,5.47
2023-03-02T01:35:03.180Z,6.22
2023-03-02T01:37:29.921Z,3.45
2023-03-02T01:39:56.533Z,5.00
2023-03-02T01:42:23.324Z,4.70
2023-03-02T01:44:57.050Z,4.88
2023-03-02T01:47:38.748Z,4.65
2023-03-02T01:50:23.219Z,4.53
2023-03-02T01:52:55.249Z,4.28
2023-03-02T01:55:28.820Z,4.18
2023-03-02T01:57:56.824Z,6.72
2023-03-02T02:00:29.205Z,3.15
2023-03-02T02:03:09.027Z,2.38
2023-03-02T02:05:41.238Z,4.97
2023-03-02T02:08:09.287Z,3.97
2023-03-02T02:10:36.295Z,3.95
2023-03-02T02:13:03.104Z,2.10
2023-03-02T02:15:30.035Z,2.45
2023-03-02T02:17:56.757Z,4.43
2023-03-02T02:20:45.220Z,5.90
2023-03-02T02:23:47.540Z,3.30
2023-03-02T02:26:24.731Z,3.00
2023-03-02T02:29:07.871Z,3.03
2023-03-02T02:31:40.556Z,1.75
2023-03-02T02:34:14.675Z,3.28
2023-03-02T02:36:47.548Z,1.65
2023-03-02T02:39:24.965Z,1.90
2023-03-02T02:41:55.546Z,1.45
2023-03-02T02:44:23.133Z,2.90
2023-03-02T02:46:49.826Z,2.78
2023-03-02T02:49:35.735Z,2.70
2023-03-02T02:52:04.440Z,2.35
2023-03-02T02:54:32.496Z,2.38
2023-03-02T02:57:01.642Z,2.30
2023-03-02T02:59:32.876Z,0.88
2023-03-02T03:02:00.866Z,1.83
2023-03-02T03:04:31.285Z,1.88
2023-03-02T03:07:04.831Z,2.05
2023-03-02T03:09:32.722Z,1.83
2023-03-02T03:12:19.592Z,1.52
2023-03-02T03:14:46.798Z,1.20
2023-03-02T03:17:13.921Z,2.70
2023-03-02T03:19:50.863Z,1.45
2023-03-02T03:22:18.741Z,2.20
2023-03-02T03:24:48.785Z,1.08
2023-03-02T03:27:16.707Z,1.13
2023-03-02T03:29:48.414Z,1.17
2023-03-02T03:32:18.684Z,0.70
2023-03-02T03:34:45.628Z,1.63
2023-03-02T03:37:24.083Z,2.25
2023-03-02T03:39:51.304Z,1.50
2023-03-02T03:42:18.777Z,1.15
2023-03-02T03:44:46.099Z,1.75
2023-03-02T03:47:13.221Z,0.88
2023-03-02T03:49:40.490Z,2.00
2023-03-02T03:52:07.885Z,1.45
2023-03-02T03:54:34.597Z,2.40
2023-03-02T03:57:01.313Z,1.73
2023-03-02T03:59:27.937Z,2.40
2023-03-02T04:02:00.291Z,2.33
2023-03-02T04:04:34.069Z,1.35
2023-03-02T04:07:04.388Z,3.13
2023-03-02T04:09:34.069Z,1.00
2023-03-02T04:12:01.125Z,2.40
2023-03-02T04:14:27.688Z,1.88
2023-03-02T04:16:55.921Z,1.85
2023-03-02T04:19:24.116Z,1.88
2023-03-02T04:21:55.211Z,1.58
2023-03-02T04:24:24.185Z,3.00
2023-03-02T04:26:54.254Z,1.02
2023-03-02T04:29:21.518Z,1.92
2023-03-02T04:31:48.488Z,2.97
2023-03-02T04:36:44.317Z,1.13
2023-03-02T04:39:15.809Z,0.43
2023-03-02T04:41:46.897Z,1.95
2023-03-02T04:44:14.280Z,1.73
2023-03-02T04:46:44.417Z,2.05
2023-03-02T04:49:12.247Z,0.73
2023-03-02T04:51:42.029Z,1.40
2023-03-02T04:54:15.006Z,1.67
2023-03-02T04:56:41.697Z,2.17
2023-03-02T04:59:08.320Z,1.33
2023-03-02T05:01:35.060Z,2.60
2023-03-02T05:04:03.018Z,1.42
2023-03-02T05:08:59.805Z,1.92
2023-03-02T05:11:26.922Z,1.23
2023-03-02T05:13:57.122Z,0.77
2023-03-02T05:16:25.522Z,1.25
2023-03-02T05:18:52.269Z,1.20
2023-03-02T05:21:19.457Z,1.95
2023-03-02T05:23:46.460Z,1.65
2023-03-02T05:26:13.701Z,2.13
2023-03-02T05:28:41.007Z,0.57
2023-03-02T05:31:07.718Z,1.30
2023-03-02T05:33:34.488Z,1.42
2023-03-02T05:36:01.436Z,1.63
2023-03-02T05:38:30.214Z,3.20
2023-03-02T05:40:56.901Z,1.08
2023-03-02T05:43:23.560Z,3.05
2023-03-02T05:45:50.215Z,2.25
2023-03-02T05:48:16.915Z,1.63
2023-03-02T05:50:43.705Z,1.40
2023-03-02T05:53:10.488Z,0.75
2023-03-02T05:55:37.272Z,2.65
2023-03-02T05:58:07.108Z,2.00
2023-03-02T06:00:33.881Z,1.70
2023-03-02T06:03:00.632Z,2.15
2023-03-02T06:05:27.321Z,2.10
2023-03-02T06:07:54.154Z,1.58
2023-03-02T06:10:20.958Z,2.60
2023-03-02T06:12:47.769Z,2.50
2023-03-02T06:15:14.443Z,4.63
2023-03-02T06:17:41.175Z,1.05
2023-03-02T06:20:11.153Z,1.65
2023-03-02T06:22:45.198Z,3.03
2023-03-02T06:25:18.529Z,3.25
2023-03-02T06:27:45.974Z,2.65
2023-03-02T06:30:15.404Z,1.17
2023-03-02T06:32:42.751Z,1.38
2023-03-02T06:35:10.325Z,2.33
2023-03-02T06:37:37.247Z,1.63
2023-03-02T06:40:11.231Z,2.38
2023-03-02T06:42:38.639Z,2.03
2023-03-02T06:45:06.781Z,2.60
2023-03-02T06:50:00.876Z,1.50
2023-03-02T06:52:27.591Z,3.88
2023-03-02T06:54:55.965Z,3.65
2023-03-02T06:57:23.138Z,3.55
2023-03-02T06:59:49.970Z,2.78
2023-03-02T07:02:16.581Z,2.75
2023-03-02T07:04:43.266Z,2.63
2023-03-02T07:07:09.954Z,3.13
2023-03-02T07:09:36.652Z,3.50
2023-03-02T07:12:03.499Z,5.55
2023-03-02T07:14:30.204Z,4.50
2023-03-02T07:16:57.546Z,6.00
2023-03-02T07:19:24.463Z,3.97
2023-03-02T07:21:51.192Z,4.18
2023-03-02T07:24:17.758Z,3.80
2023-03-02T07:26:44.325Z,7.57
2023-03-02T07:29:10.932Z,5.97
2023-03-02T07:31:37.483Z,6.03
2023-03-02T07:34:04.115Z,4.68
2023-03-02T07:36:30.864Z,6.28
2023-03-02T07:38:57.578Z,4.78
2023-03-02T07:41:24.366Z,4.35
2023-03-02T07:43:51.109Z,3.97
2023-03-02T07:46:17.767Z,7.30
2023-03-02T07:48:44.441Z,5.68
2023-03-02T07:51:11.130Z,6.38
2023-03-02T07:53:38.564Z,6.00
2023-03-02T07:56:10.352Z,6.53
2023-03-02T07:58:37.522Z,5.63
2023-03-02T08:01:04.750Z,5.30
2023-03-02T08:03:31.596Z,6.35
2023-03-02T08:05:58.277Z,8.70
2023-03-02T08:08:24.924Z,7.18
2023-03-02T08:10:51.546Z,5.47
2023-03-02T08:13:18.095Z,10.05
2023-03-02T08:15:44.698Z,5.75
2023-03-02T08:18:11.305Z,6.32
2023-03-02T08:20:38.394Z,7.00
2023-03-02T08:23:05.011Z,6.35
2023-03-02T08:25:31.589Z,6.90
2023-03-02T08:28:00.551Z,6.80
2023-03-02T08:30:27.286Z,6.13
2023-03-02T08:32:53.907Z,6.30
2023-03-02T08:35:22.135Z,5.28
2023-03-02T08:37:49.046Z,5.60
2023-03-02T08:40:15.776Z,6.47
2023-03-02T08:42:42.364Z,7.22
2023-03-02T08:45:09.452Z,10.48
2023-03-02T08:47:36.086Z,6.05
2023-03-02T08:50:02.752Z,5.03
2023-03-02T08:52:29.366Z,5.30
2023-03-02T08:54:56.122Z,6.93
2023-03-02T08:57:22.744Z,10.57
2023-03-02T08:59:49.301Z,5.47
2023-03-02T09:02:15.848Z,7.38
2023-03-02T09:04:42.576Z,7.28
2023-03-02T09:07:09.858Z,6.13
2023-03-02T09:09:36.605Z,6.30
2023-03-02T09:12:03.398Z,6.20
2023-03-02T09:14:29.975Z,9.10
2023-03-02T09:16:56.626Z,8.23
2023-03-02T09:19:23.239Z,7.03
2023-03-02T09:21:49.852Z,5.55
2023-03-02T09:24:16.660Z,8.10
2023-03-02T09:26:43.253Z,5.32
2023-03-02T09:29:09.990Z,7.28
2023-03-02T09:31:37.831Z,6.80
2023-03-02T09:34:05.425Z,7.63
2023-03-02T09:36:32.803Z,6.57
2023-03-02T09:38:59.580Z,5.38
2023-03-02T09:41:43.358Z,8.27
2023-03-02T09:44:41.988Z,9.15
2023-03-02T09:47:35.896Z,6.95
2023-03-02T09:50:13.728Z,7.82
2023-03-02T09:52:51.429Z,7.63
2023-03-02T09:55:28.026Z,6.72
2023-03-02T09:57:55.859Z,6.13
2023-03-02T10:00:30.982Z,6.97
2023-03-02T10:03:14.938Z,6.53
2023-03-02T10:05:46.955Z,6.90
2023-03-02T10:08:20.818Z,6.60
2023-03-02T10:11:12.144Z,4.70
2023-03-02T10:14:08.142Z,4.53
2023-03-02T10:17:17.475Z,5.75
2023-03-02T10:19:52.673Z,6.78
2023-03-02T10:22:33.815Z,5.55
2023-03-02T10:25:57.321Z,4.18
2023-03-02T10:28:32.793Z,5.00
2023-03-02T10:31:14.583Z,5.53
2023-03-02T10:33:42.089Z,5.05
2023-03-02T10:36:22.192Z,3.60
2023-03-02T10:38:48.933Z,5.78
2023-03-02T10:41:30.532Z,4.13
2023-03-02T10:44:02.626Z,5.63
2023-03-02T10:46:43.148Z,4.50
2023-03-02T10:49:25.277Z,5.15
2023-03-02T10:52:01.578Z,3.92
2023-03-02T10:54:30.696Z,4.75
2023-03-02T10:57:00.736Z,4.20
2023-03-02T10:59:45.508Z,3.83
2023-03-02T11:02:24.807Z,5.32
2023-03-02T11:04:57.640Z,8.30
2023-03-02T11:07:29.103Z,4.97
2023-03-02T11:10:17.338Z,5.60
2023-03-02T11:12:47.611Z,3.63
2023-03-02T11:15:26.503Z,3.97
2023-03-02T11:18:05.816Z,5.13
2023-03-02T11:20:38.483Z,5.78
2023-03-02T11:23:33.108Z,4.65
2023-03-02T11:26:27.753Z,5.22
2023-03-02T11:28:59.589Z,5.70
2023-03-02T11:31:48.393Z,4.22
2023-03-02T11:34:17.879Z,4.90
2023-03-02T11:36:59.210Z,4.53
2023-03-02T11:39:37.426Z,3.90
2023-03-02T11:42:15.659Z,3.38
2023-03-02T11:44:42.436Z,4.65
2023-03-02T11:47:12.109Z,7.15
2023-03-02T11:49:44.079Z,4.65
2023-03-02T11:52:23.318Z,4.35
2023-03-02T11:54:57.743Z,3.22
2023-03-02T11:57:39.812Z,4.80
2023-03-02T12:00:19.185Z,4.55
2023-03-02T12:02:45.886Z,5.78
2023-03-02T12:05:28.319Z,4.68
2023-03-02T12:08:21.277Z,3.50
2023-03-02T12:11:18.863Z,6.63
2023-03-02T12:13:59.103Z,4.80
2023-03-02T12:16:35.731Z,5.10
2023-03-02T12:19:18.063Z,5.13
2023-03-02T12:22:05.803Z,4.75
2023-03-02T12:24:36.050Z,3.47
2023-03-02T12:27:20.930Z,4.00
2023-03-02T12:30:10.252Z,3.33
2023-03-02T12:32:37.608Z,3.85
2023-03-02T12:35:07.144Z,4.63
2023-03-02T12:37:57.080Z,3.90
2023-03-02T12:40:44.117Z,3.92
2023-03-02T12:43:27.959Z,6.40
2023-03-02T12:46:28.366Z,3.40
2023-03-02T12:49:00.043Z,2.95
2023-03-02T12:51:43.894Z,3.63
2023-03-02T12:54:16.416Z,4.22
2023-03-02T12:56:44.345Z,8.68
2023-03-02T12:59:21.445Z,5.05
2023-03-02T13:01:48.098Z,6.18
2023-03-02T13:04:25.943Z,4.32
2023-03-02T13:06:54.204Z,4.22
2023-03-02T13:09:21.745Z,4.57
2023-03-02T13:11:52.084Z,4.07
2023-03-02T13:14:27.003Z,5.07
2023-03-02T13:16:56.324Z,4.32
2023-03-02T13:19:24.441Z,3.38
2023-03-02T13:21:51.562Z,4.43
2023-03-02T13:24:49.864Z,5.07
2023-03-02T13:27:20.278Z,5.35
2023-03-02T13:29:47.835Z,5.43
2023-03-02T13:32:20.815Z,2.97
2023-03-02T13:34:50.804Z,7.18
2023-03-02T13:37:22.256Z,3.47
2023-03-02T13:40:00.354Z,3.30
2023-03-02T13:42:34.327Z,4.13
2023-03-02T13:45:25.689Z,5.47
2023-03-02T13:47:53.694Z,4.80
2023-03-02T13:50:23.498Z,3.22
2023-03-02T13:52:51.550Z,2.83
2023-03-02T13:55:20.658Z,5.13
2023-03-02T13:57:48.959Z,5.55
2023-03-02T14:00:35.103Z,3.63
2023-03-02T14:03:02.063Z,4.00
2023-03-02T14:05:33.468Z,4.15
2023-03-02T14:08:00.465Z,3.25
2023-03-02T14:10:27.273Z,3.08
2023-03-02T14:12:59.688Z,4.28
2023-03-02T14:15:26.555Z,4.53
2023-03-02T14:17:53.232Z,3.15
2023-03-02T14:20:20.626Z,4.28
2023-03-02T14:22:48.119Z,6.28
2023-03-02T14:25:14.942Z,6.70
2023-03-02T14:27:43.432Z,3.85
2023-03-02T14:30:21.451Z,3.78
2023-03-02T14:32:48.398Z,4.38
2023-03-02T14:35:16.537Z,4.80
2023-03-02T14:37:48.166Z,5.10
2023-03-02T14:40:18.130Z,4.85
2023-03-02T14:42:44.849Z,4.78
2023-03-02T14:45:11.789Z,6.07
2023-03-02T14:47:38.487Z,4.70
2023-03-02T14:50:05.532Z,5.95
2023-03-02T14:52:58.521Z,4.25
2023-03-02T14:55:27.988Z,4.35
2023-03-02T14:58:04.043Z,4.57
2023-03-02T15:00:30.921Z,3.50
2023-03-02T15:02:59.123Z,3.33
2023-03-02T15:05:29.243Z,7.32
2023-03-02T15:07:58.723Z,4.05
2023-03-02T15:10:25.848Z,3.42
2023-03-02T15:12:52.510Z,3.80
2023-03-02T15:15:19.142Z,2.70
2023-03-02T15:17:45.767Z,3.28
2023-03-02T15:20:16.225Z,4.32
2023-03-02T15:22:43.432Z,7.43
2023-03-02T15:25:10.589Z,3.03
2023-03-02T15:27:37.276Z,3.60
2023-03-02T15:30:05.178Z,3.97
2023-03-02T15:34:58.379Z,5.25
2023-03-02T15:37:25.016Z,5.97
2023-03-02T15:39:55.643Z,3.85
2023-03-02T15:42:23.073Z,3.00
2023-03-02T15:44:49.769Z,3.65
2023-03-02T15:47:16.650Z,5.13
2023-03-02T15:49:43.386Z,4.03
2023-03-02T15:52:12.106Z,4.28
2023-03-02T15:54:38.845Z,3.30
2023-03-02T15:57:05.513Z,2.05
2023-03-02T15:59:32.738Z,3.80
2023-03-02T16:02:01.969Z,4.45
2023-03-02T16:04:30.631Z,3.38
2023-03-02T16:06:57.840Z,4.25
2023-03-02T16:09:25.909Z,2.58
2023-03-02T16:11:52.780Z,3.05
2023-03-02T16:14:19.440Z,4.78
2023-03-02T16:16:46.500Z,3.42
2023-03-02T16:19:18.801Z,4.72
2023-03-02T16:21:46.152Z,4.03
2023-03-02T16:24:13.146Z,5.38
2023-03-02T16:26:39.835Z,2.58
2023-03-02T16:29:09.263Z,3.15
2023-03-02T16:31:37.789Z,2.22
2023-03-02T16:34:09.492Z,2.95
2023-03-02T16:36:38.879Z,2.85
2023-03-02T16:39:06.816Z,3.53
2023-03-02T16:44:01.371Z,3.10
2023-03-02T16:46:32.018Z,3.75
2023-03-02T16:48:58.987Z,3.17
2023-03-02T16:51:25.821Z,5.57
2023-03-02T16:53:52.936Z,3.65
2023-03-02T16:56:20.000Z,3.67
2023-03-02T16:58:46.689Z,3.53
2023-03-02T17:01:17.302Z,3.80
2023-03-02T17:03:46.307Z,4.50
2023-03-02T17:06:15.676Z,4.78
2023-03-02T17:08:42.644Z,3.83
2023-03-02T17:11:09.425Z,3.15
2023-03-02T17:13:36.291Z,10.90
2023-03-02T17:16:03.196Z,5.43
2023-03-02T17:18:30.888Z,4.40
2023-03-02T17:20:58.531Z,4.30
2023-03-02T17:23:27.095Z,4.53
2023-03-02T17:25:54.583Z,3.47
2023-03-02T17:28:21.290Z,3.78
2023-03-02T17:30:48.054Z,5.55
2023-03-02T17:33:14.806Z,4.57
2023-03-02T17:35:42.538Z,3.97
2023-03-02T17:38:09.284Z,4.30
2023-03-02T17:40:36.107Z,3.67
2023-03-02T17:43:02.908Z,4.00
2023-03-02T17:45:30.049Z,3.35
2023-03-02T17:47:58.340Z,4.93
2023-03-02T17:50:26.684Z,4.80
2023-03-02T17:55:20.870Z,3.30
2023-03-02T17:57:47.575Z,5.15
2023-03-02T18:00:18.005Z,3.50
2023-03-02T18:02:44.969Z,6.10
2023-03-02T18:05:12.106Z,3.85
2023-03-02T18:07:38.801Z,4.07
2023-03-02T18:10:06.982Z,3.17
2023-03-02T18:12:34.248Z,4.10
2023-03-02T18:15:00.896Z,4.03
2023-03-02T18:17:27.550Z,6.00
2023-03-02T18:19:54.244Z,3.88
2023-03-02T18:22:21.937Z,3.20
2023-03-02T18:24:50.397Z,5.78
2023-03-02T18:27:17.272Z,3.20
2023-03-02T18:29:44.112Z,4.82
2023-03-02T18:32:11.406Z,3.90
2023-03-02T18:34:38.317Z,4.28
2023-03-02T18:37:04.894Z,5.63
2023-03-02T18:39:31.550Z,3.53
2023-03-02T18:41:58.145Z,4.35
2023-03-02T18:44:27.922Z,4.25
2023-03-02T18:46:55.734Z,6.78
2023-03-02T18:49:22.803Z,3.83
2023-03-02T18:51:49.622Z,3.80
2023-03-02T18:54:16.410Z,4.10
2023-03-02T18:56:43.048Z,5.65
2023-03-02T18:59:09.860Z,4.60
2023-03-02T19:01:36.756Z,4.53
2023-03-02T19:04:04.853Z,9.40
2023-03-02T19:06:34.839Z,4.68
2023-03-02T19:09:01.456Z,4.60
2023-03-02T19:11:28.156Z,6.47
2023-03-02T19:13:59.961Z,6.25
2023-03-02T19:16:26.723Z,5.40
2023-03-02T19:18:54.814Z,5.15
2023-03-02T19:21:21.576Z,6.95
2023-03-02T19:23:48.140Z,4.90
2023-03-02T19:26:14.825Z,4.53
2023-03-02T19:28:43.740Z,6.82
2023-03-02T19:31:11.418Z,5.78
2023-03-02T19:33:39.893Z,6.38
2023-03-02T19:36:07.267Z,4.57
2023-03-02T19:38:37.757Z,5.28
2023-03-02T19:41:04.501Z,5.22
2023-03-02T19:43:31.165Z,12.48
2023-03-02T19:45:57.854Z,4.43
2023-03-02T19:48:24.621Z,5.55
2023-03-02T19:50:52.833Z,6.93
2023-03-02T19:53:19.380Z,4.95
2023-03-02T19:55:45.988Z,4.78
2023-03-02T19:58:17.233Z,5.68
2023-03-02T20:03:58.186Z,6.43
2023-03-02T20:06:31.052Z,12.85
2023-03-02T20:08:59.106Z,6.10
2023-03-02T20:11:27.179Z,5.75
2023-03-02T20:16:22.896Z,5.97
2023-03-02T20:18:51.318Z,9.00
2023-03-02T20:21:18.852Z,7.28
2023-03-02T20:23:46.262Z,8.15
2023-03-02T20:26:12.966Z,7.35
2023-03-02T20:28:39.653Z,6.68
2023-03-02T20:31:09.788Z,7.93
2023-03-02T20:33:41.537Z,13.90
2023-03-02T20:36:08.879Z,8.25
2023-03-02T20:38:49.391Z,6.10
2023-03-02T20:41:17.478Z,6.13
2023-03-02T20:46:17.395Z,7.72
2023-03-02T20:48:44.404Z,7.50
2023-03-02T20:51:11.096Z,8.00
2023-03-02T20:53:37.809Z,6.53
2023-03-02T20:56:04.761Z,7.50
2023-03-02T20:58:31.332Z,7.97
2023-03-02T21:00:58.485Z,6.18
2023-03-02T21:03:25.136Z,12.43
2023-03-02T21:05:51.727Z,6.70
2023-03-02T21:08:18.485Z,7.03
2023-03-02T21:10:45.266Z,6.05
2023-03-02T21:13:12.136Z,6.38
2023-03-02T21:15:39.195Z,8.15
2023-03-02T21:18:05.901Z,8.07
2023-03-02T21:20:33.824Z,6.40
2023-03-02T21:23:00.468Z,5.75
2023-03-02T21:25:27.666Z,6.72
2023-03-02T21:27:56.102Z,5.63
2023-03-02T21:30:34.807Z,5.60
2023-03-02T21:33:02.597Z,7.50
2023-03-02T21:35:29.556Z,8.48
2023-03-02T21:38:04.604Z,8.63
2023-03-02T21:40:34.927Z,4.32
2023-03-02T21:43:02.368Z,6.43
2023-03-02T21:45:29.232Z,7.57
2023-03-02T21:47:56.030Z,6.65
2023-03-02T21:50:26.947Z,4.55
2023-03-02T21:52:55.375Z,7.28
2023-03-02T21:55:22.502Z,7.72
2023-03-02T21:57:49.139Z,8.65
2023-03-02T22:00:25.479Z,8.80
2023-03-02T22:02:52.382Z,5.65
2023-03-02T22:05:19.779Z,7.35
2023-03-02T22:07:47.572Z,6.95
2023-03-02T22:10:29.342Z,8.70
2023-03-02T22:13:06.012Z,5.57
2023-03-02T22:15:32.662Z,10.00
2023-03-02T22:17:59.641Z,8.32
2023-03-02T22:20:26.348Z,8.55
2023-03-02T22:22:53.711Z,6.95
2023-03-02T22:25:20.492Z,7.20
2023-03-02T22:27:47.370Z,6.20
2023-03-02T22:30:23.551Z,6.45
2023-03-02T22:32:50.198Z,7.38
2023-03-02T22:35:23.458Z,7.38
2023-03-02T22:37:51.966Z,7.18
2023-03-02T22:40:32.348Z,10.27
2023-03-02T22:43:13.855Z,7.18
2023-03-02T22:45:41.237Z,7.70
2023-03-02T22:48:14.281Z,5.25
2023-03-02T22:50:43.892Z,5.30
2023-03-02T22:53:24.710Z,7.32
2023-03-02T22:56:03.460Z,8.95
2023-03-02T22:58:31.591Z,9.60
2023-03-02T23:01:00.692Z,7.25
2023-03-02T23:03:42.698Z,12.13
2023-03-02T23:06:24.656Z,4.82
2023-03-02T23:08:53.023Z,6.80
2023-03-02T23:11:22.426Z,6.28
2023-03-02T23:13:50.327Z,5.20
2023-03-02T23:16:19.778Z,10.43
2023-03-02T23:18:48.136Z,8.60
2023-03-02T23:21:18.080Z,6.93
2023-03-02T23:23:44.770Z,7.97
2023-03-02T23:26:11.624Z,6.45
2023-03-02T23:28:38.600Z,5.03
2023-03-02T23:31:05.627Z,6.15
2023-03-02T23:33:33.425Z,6.13
2023-03-02T23:36:00.790Z,7.05
2023-03-02T23:38:27.445Z,8.85
2023-03-02T23:40:54.347Z,7.43
2023-03-02T23:43:21.125Z,4.88
2023-03-02T23:45:47.856Z,6.80
2023-03-02T23:48:14.624Z,10.70
2023-03-02T23:50:41.324Z,7.82
2023-03-02T23:53:08.481Z,5.50
2023-03-02T23:55:36.966Z,5.60
2023-03-02T23:58:03.706Z,7.18
